Terminal Aerodrome Forecast
Issued by NWS

Home | Current Version | Previous Version | Text Only | Print | Product List | Glossary On
Versions: 1 2 3 4 5 6 7 8 9 10 11 12 13 14 15 16 17
923
FTUS42 KFFC 250520
TAFRYY
TAF
KRYY 250520Z 2506/2606 00000KT P6SM SCT010 BKN020
      TEMPO 2506/2510 BKN010
     FM251000 00000KT 4SM BR BKN010
     FM251400 31006KT P6SM BKN015
     FM251600 31010KT P6SM SCT025
     FM251800 31010KT P6SM FEW040
     FM260100 26002KT P6SM SKC
      AMD NOT SKED TIL 251200=

USA.gov is the U.S. government's official web portal to all federal, state and local government web resources and services.